Impacts METAR Board
IDs:

KSTL - St Louis/Lambert Int, MO, US

Updated at: 0100 UTC 24 Jun 2018
Potential Impact None Slight Moderate High
Time 23/13Z 23/14Z 23/15Z 23/16Z 23/17Z 23/18Z 23/19Z 23/20Z 23/21Z 23/22Z 23/23Z 24/00Z 24/01Z
Temp70 71 73 75 77 77 79 80 80 79 79 79 78
Dewpt65 66 65 65 63 64 64 65 67 66 67 66 67
Altim29.81 29.81 29.80 29.81 29.79 29.80 29.80 29.81 29.80 29.80 29.80 29.80 29.81
VIS10 10 10 10 10 10 10 10 10 10 10 10 10
CIG14 14 43 22 26 30 50 38 37 250 -- -- --
CoverOVCBKNBKNBKNBKNBKNBKNBKNBKNBKNSCTFEWFEW
FltCatMVFRMVFRVFRMVFRMVFRMVFRVFRVFRVFRVFRVFRVFRVFR
WX--------------------------
WDir310290025000032035035010360350
WSpd4 3 0 7 4 3 3 7 11 6 4 3 4
WGst-- -- -- -- -- -- -- -- -- -- -- -- --
Raw hourly METARs
KSTL 231251Z 31004KT 10SM BKN014 OVC043 21/18 A2981 RMK AO2 SLP087 T02110183
KSTL 231351Z 29003KT 10SM BKN014 BKN043 22/19 A2981 RMK AO2 SLP087 T02170189
KSTL 231451Z 00000KT 10SM SCT017 BKN043 BKN150 BKN250 23/18 A2980 RMK AO2 SLP081 T02280183 58002
KSTL 231551Z 25007KT 10SM BKN022 BKN044 BKN160 24/18 A2981 RMK AO2 SLP086 T02390183
KSTL 231651Z VRB04KT 10SM BKN026 BKN041 BKN160 25/17 A2979 RMK AO2 SLP080 T02500172
KSTL 231751Z VRB03KT 10SM BKN030 BKN042 25/18 A2980 RMK AO2 SLP081 T02500178 10256 20206 51000
KSTL 231851Z VRB03KT 10SM SCT038 BKN050 26/18 A2980 RMK AO2 SLP081 T02610178
KSTL 231951Z 32007KT 10SM BKN038 BKN050 27/18 A2981 RMK AO2 SLP084 T02670183
KSTL 232051Z 35011KT 10SM BKN037 BKN070 27/19 A2980 RMK AO2 SLP081 T02670194 50000
KSTL 232151Z 35006KT 10SM FEW040 SCT070 BKN250 26/19 A2980 RMK AO2 SLP080 CB DSNT S MOV E T02610189
KSTL 232251Z 01004KT 10SM FEW032 SCT065 SCT250 26/19 A2980 RMK AO2 SLP080 T02610194
KSTL 232351Z 36003KT 10SM FEW035 FEW065 26/19 A2980 RMK AO2 SLP081 T02610189 10272 20244 53000
KSTL 240051Z 35004KT 10SM FEW035 FEW065 26/19 A2981 RMK AO2 SLP084 T02560194



Page loaded:  01:19 UTC  |   06:19 PM Pacific  |   07:19 PM Mountain  |   08:19 PM Central  |   09:19 PM Eastern

 

ADVISORIES

FORECASTS

FORECASTS

OBSERVATIONS

USER TOOLS

ABOUT US